createdAt,value
2022-08-07T00:00:55.749Z,15.52
2022-08-07T00:02:36.921Z,15.52
2022-08-07T00:02:55.546Z,15.51
2022-08-07T00:03:55.171Z,15.50
2022-08-07T00:04:54.511Z,15.48
2022-08-07T00:05:54.692Z,15.46
2022-08-07T00:06:54.455Z,15.44
2022-08-07T00:07:58.300Z,15.43
2022-08-07T00:08:55.445Z,15.42
2022-08-07T00:10:18.787Z,15.41
2022-08-07T00:10:57.423Z,15.40
2022-08-07T00:11:58.612Z,15.40
2022-08-07T00:13:00.684Z,15.40
2022-08-07T00:13:55.411Z,15.40
2022-08-07T00:14:54.406Z,15.39
2022-08-07T00:15:54.797Z,15.39
2022-08-07T00:16:54.621Z,15.39
2022-08-07T00:17:54.317Z,15.38
2022-08-07T00:18:54.338Z,15.37
2022-08-07T00:20:02.649Z,15.35
2022-08-07T00:20:56.797Z,15.34
2022-08-07T00:21:56.979Z,15.33
2022-08-07T00:22:55.712Z,15.32
2022-08-07T00:23:54.301Z,15.32
2022-08-07T00:24:54.277Z,15.33
2022-08-07T00:26:00.237Z,15.33
2022-08-07T00:27:06.783Z,15.34
2022-08-07T00:27:56.496Z,15.33
2022-08-07T00:28:56.413Z,15.32
2022-08-07T00:29:54.246Z,15.31
2022-08-07T00:30:54.184Z,15.29
2022-08-07T00:31:54.212Z,15.28
2022-08-07T00:32:54.166Z,15.27
2022-08-07T00:33:54.198Z,15.26
2022-08-07T00:34:54.499Z,15.25
2022-08-07T00:35:54.126Z,15.24
2022-08-07T00:36:54.138Z,15.24
2022-08-07T00:37:54.117Z,15.23
2022-08-07T00:38:54.136Z,15.23
2022-08-07T00:39:54.495Z,15.23
2022-08-07T00:40:54.317Z,15.23
2022-08-07T00:42:02.427Z,15.22
2022-08-07T00:42:55.070Z,15.22
2022-08-07T00:43:59.664Z,15.21
2022-08-07T00:44:55.067Z,15.19
2022-08-07T00:45:54.019Z,15.18
2022-08-07T00:46:54.260Z,15.17
2022-08-07T00:48:08.718Z,15.16
2022-08-07T00:48:55.021Z,15.15
2022-08-07T00:50:20.157Z,15.14
2022-08-07T00:50:54.968Z,15.13
2022-08-07T00:51:57.677Z,15.12
2022-08-07T00:52:53.948Z,15.12
2022-08-07T00:53:55.313Z,15.11
2022-08-07T00:54:54.344Z,15.11
2022-08-07T00:56:02.765Z,15.11
2022-08-07T00:56:55.060Z,15.11
2022-08-07T00:57:55.897Z,15.11
2022-08-07T00:58:53.884Z,15.11
2022-08-07T00:59:53.890Z,15.10
2022-08-07T01:00:54.268Z,15.09
2022-08-07T01:01:53.937Z,15.06
2022-08-07T01:02:54.030Z,15.04
2022-08-07T01:03:57.062Z,15.02
2022-08-07T01:04:58.429Z,14.99
2022-08-07T01:05:53.842Z,14.97
2022-08-07T01:06:53.914Z,14.96
2022-08-07T01:07:53.942Z,14.94
2022-08-07T01:08:55.660Z,14.93
2022-08-07T01:10:06.016Z,14.92
2022-08-07T01:10:56.515Z,14.90
2022-08-07T01:12:23.406Z,14.87
2022-08-07T01:12:54.905Z,14.85
2022-08-07T01:13:55.737Z,14.83
2022-08-07T01:14:57.040Z,14.81
2022-08-07T01:16:05.646Z,14.80
2022-08-07T01:16:54.706Z,14.78
2022-08-07T01:17:53.730Z,14.76
2022-08-07T01:18:54.012Z,14.74
2022-08-07T01:19:54.585Z,14.73
2022-08-07T01:20:59.190Z,14.71
2022-08-07T01:21:55.313Z,14.69
2022-08-07T01:22:57.807Z,14.68
2022-08-07T01:23:54.625Z,14.66
2022-08-07T01:24:53.782Z,14.65
2022-08-07T01:25:56.325Z,14.63
2022-08-07T01:26:53.885Z,14.62
2022-08-07T01:27:53.563Z,14.61
2022-08-07T01:28:53.574Z,14.60
2022-08-07T01:29:53.614Z,14.58
2022-08-07T01:30:53.701Z,14.57
2022-08-07T01:31:53.721Z,14.56
2022-08-07T01:32:53.626Z,14.56
2022-08-07T01:33:55.429Z,14.56
2022-08-07T01:34:53.558Z,14.57
2022-08-07T01:36:05.822Z,14.56
2022-08-07T01:36:57.946Z,14.55
2022-08-07T01:37:53.460Z,14.53
2022-08-07T01:38:53.469Z,14.52
2022-08-07T01:39:53.558Z,14.51
2022-08-07T01:40:53.439Z,14.50
2022-08-07T01:42:07.563Z,14.49
2022-08-07T01:42:58.553Z,14.47
2022-08-07T01:43:53.419Z,14.45
2022-08-07T01:44:53.436Z,14.44
2022-08-07T01:45:54.413Z,14.43
2022-08-07T01:46:53.721Z,14.42
2022-08-07T01:48:20.483Z,14.40
2022-08-07T01:48:54.394Z,14.38
2022-08-07T01:49:53.643Z,14.38
2022-08-07T01:50:53.382Z,14.37
2022-08-07T01:52:02.364Z,14.36
2022-08-07T01:52:55.029Z,14.34
2022-08-07T01:54:11.977Z,14.31
2022-08-07T01:54:54.315Z,14.27
2022-08-07T01:55:53.327Z,14.24
2022-08-07T01:56:53.261Z,14.21
2022-08-07T01:58:06.083Z,14.19
2022-08-07T01:58:54.427Z,14.18
2022-08-07T01:59:53.249Z,14.17
2022-08-07T02:00:58.030Z,14.15
2022-08-07T02:01:59.829Z,14.13
2022-08-07T02:03:11.717Z,14.11
2022-08-07T02:03:54.268Z,14.10
2022-08-07T02:04:56.127Z,14.10
2022-08-07T02:06:00.072Z,14.10
2022-08-07T02:06:54.160Z,14.10
2022-08-07T02:07:53.144Z,14.09
2022-08-07T02:08:54.332Z,14.08
2022-08-07T02:09:58.479Z,14.06
2022-08-07T02:10:54.959Z,14.04
2022-08-07T02:12:03.038Z,14.03
2022-08-07T02:12:54.079Z,14.01
2022-08-07T02:13:57.458Z,14.00
2022-08-07T02:14:54.430Z,13.99
2022-08-07T02:15:53.293Z,13.99
2022-08-07T02:16:53.056Z,13.99
2022-08-07T02:17:53.043Z,13.99
2022-08-07T02:18:53.036Z,14.00
2022-08-07T02:20:05.659Z,14.01
2022-08-07T02:20:57.345Z,14.01
2022-08-07T02:21:56.528Z,14.01
2022-08-07T02:22:55.131Z,14.01
2022-08-07T02:23:52.979Z,14.01
2022-08-07T02:24:52.961Z,14.01
2022-08-07T02:26:30.537Z,14.02
2022-08-07T02:26:54.109Z,14.01
2022-08-07T02:27:53.123Z,14.01
2022-08-07T02:28:52.963Z,14.00
2022-08-07T02:29:54.072Z,14.00
2022-08-07T02:30:52.998Z,14.00
2022-08-07T02:31:54.683Z,14.00
2022-08-07T02:33:01.034Z,14.00
2022-08-07T02:34:03.241Z,13.99
2022-08-07T02:34:53.897Z,13.97
2022-08-07T02:36:28.563Z,13.94
2022-08-07T02:36:53.908Z,13.92
2022-08-07T02:37:52.829Z,13.89
2022-08-07T02:38:56.670Z,13.87
2022-08-07T02:40:11.789Z,13.85
2022-08-07T02:40:56.077Z,13.83
2022-08-07T02:41:54.807Z,13.81
2022-08-07T02:42:52.852Z,13.79
2022-08-07T02:43:52.772Z,13.77
2022-08-07T02:44:52.932Z,13.76
2022-08-07T02:46:00.764Z,13.74
2022-08-07T02:46:53.734Z,13.74
2022-08-07T02:47:52.764Z,13.73
2022-08-07T02:48:55.083Z,13.73
2022-08-07T02:49:57.965Z,13.73
2022-08-07T02:50:53.681Z,13.73
2022-08-07T02:51:52.681Z,13.73
2022-08-07T02:52:52.660Z,13.72
2022-08-07T02:53:52.662Z,13.71
2022-08-07T02:54:52.795Z,13.70
2022-08-07T02:56:03.891Z,13.69
2022-08-07T02:56:53.612Z,13.69
2022-08-07T02:57:52.621Z,13.67
2022-08-07T02:58:54.310Z,13.66
2022-08-07T02:59:55.279Z,13.64
2022-08-07T03:00:53.981Z,13.62
2022-08-07T03:01:55.271Z,13.60
2022-08-07T03:02:54.959Z,13.59
2022-08-07T03:03:52.575Z,13.58
2022-08-07T03:04:52.521Z,13.58
2022-08-07T03:05:53.485Z,13.57
2022-08-07T03:06:52.681Z,13.56
2022-08-07T03:08:07.394Z,13.55
2022-08-07T03:08:53.491Z,13.54
2022-08-07T03:09:52.746Z,13.53
2022-08-07T03:10:52.468Z,13.51
2022-08-07T03:11:57.921Z,13.50
2022-08-07T03:12:53.482Z,13.47
2022-08-07T03:13:57.559Z,13.46
2022-08-07T03:14:53.427Z,13.45
2022-08-07T03:15:55.620Z,13.45
2022-08-07T03:16:53.551Z,13.44
2022-08-07T03:17:53.530Z,13.43
2022-08-07T03:18:52.442Z,13.42
2022-08-07T03:19:54.959Z,13.40
2022-08-07T03:20:52.537Z,13.40
2022-08-07T03:21:52.359Z,13.39
2022-08-07T03:22:52.341Z,13.40
2022-08-07T03:24:20.298Z,13.40
2022-08-07T03:24:53.404Z,13.39
2022-08-07T03:25:58.307Z,13.39
2022-08-07T03:26:59.239Z,13.38
2022-08-07T03:27:59.542Z,13.38
2022-08-07T03:28:53.411Z,13.38
2022-08-07T03:29:52.310Z,13.38
2022-08-07T03:30:52.242Z,13.38
2022-08-07T03:31:52.266Z,13.37
2022-08-07T03:32:58.655Z,13.37
2022-08-07T03:33:53.287Z,13.36
2022-08-07T03:35:00.967Z,13.34
2022-08-07T03:35:53.206Z,13.32
2022-08-07T03:36:52.879Z,13.28
2022-08-07T03:37:53.389Z,13.25
2022-08-07T03:38:52.181Z,13.22
2022-08-07T03:40:00.163Z,13.20
2022-08-07T03:40:57.229Z,13.18
2022-08-07T03:41:53.294Z,13.16
2022-08-07T03:42:52.116Z,13.14
2022-08-07T03:43:56.954Z,13.13
2022-08-07T03:44:57.789Z,13.12
2022-08-07T03:45:53.129Z,13.10
2022-08-07T03:47:10.735Z,13.08
2022-08-07T03:47:53.061Z,13.06
2022-08-07T03:49:02.027Z,13.04
2022-08-07T03:49:53.535Z,13.03
2022-08-07T03:50:57.634Z,13.02
2022-08-07T03:51:57.342Z,13.01
2022-08-07T03:52:53.011Z,13.00
2022-08-07T03:54:33.034Z,13.00
2022-08-07T03:54:55.255Z,12.99
2022-08-07T03:55:58.282Z,12.98
2022-08-07T03:57:07.053Z,12.97
2022-08-07T03:58:34.994Z,12.96
2022-08-07T03:59:08.246Z,12.96
2022-08-07T04:00:01.647Z,12.95
2022-08-07T04:00:57.003Z,12.95
2022-08-07T04:01:52.944Z,12.94
2022-08-07T04:02:51.899Z,12.94
2022-08-07T04:03:55.229Z,12.93
2022-08-07T04:04:51.872Z,12.91
2022-08-07T04:05:51.899Z,12.90
2022-08-07T04:06:52.899Z,12.88
2022-08-07T04:07:51.872Z,12.86
2022-08-07T04:08:52.042Z,12.85
2022-08-07T04:09:51.873Z,12.83
2022-08-07T04:10:53.912Z,12.82
2022-08-07T04:12:25.181Z,12.81
2022-08-07T04:12:52.820Z,12.80
2022-08-07T04:14:10.774Z,12.79
2022-08-07T04:14:52.771Z,12.79
2022-08-07T04:15:51.816Z,12.79
2022-08-07T04:16:58.134Z,12.80
2022-08-07T04:18:58.005Z,12.81
2022-08-07T04:18:59.716Z,12.81
2022-08-07T04:19:54.846Z,12.82
2022-08-07T04:20:54.533Z,12.81
2022-08-07T04:22:05.458Z,12.80
2022-08-07T04:22:53.378Z,12.79
2022-08-07T04:24:03.538Z,12.79
2022-08-07T04:24:52.851Z,12.78
2022-08-07T04:25:51.671Z,12.77
2022-08-07T04:26:51.651Z,12.76
2022-08-07T04:27:59.341Z,12.75
2022-08-07T04:28:52.651Z,12.74
2022-08-07T04:30:02.230Z,12.73
2022-08-07T04:30:56.801Z,12.72
2022-08-07T04:32:03.068Z,12.71
2022-08-07T04:32:58.168Z,12.70
2022-08-07T04:33:54.999Z,12.70
2022-08-07T04:34:51.743Z,12.70
2022-08-07T04:35:54.150Z,12.70
2022-08-07T04:36:51.541Z,12.70
2022-08-07T04:38:03.489Z,12.70
2022-08-07T04:38:52.536Z,12.70
2022-08-07T04:39:51.719Z,12.70
2022-08-07T04:40:56.590Z,12.70
2022-08-07T04:41:52.512Z,12.70
2022-08-07T04:42:52.445Z,12.70
2022-08-07T04:44:12.976Z,12.71
2022-08-07T04:44:54.407Z,12.71
2022-08-07T04:46:01.625Z,12.72
2022-08-07T04:47:04.993Z,12.73
2022-08-07T04:47:58.877Z,12.73
2022-08-07T04:48:52.402Z,12.74
2022-08-07T04:50:03.667Z,12.75
2022-08-07T04:50:53.037Z,12.77
2022-08-07T04:51:51.432Z,12.77
2022-08-07T04:52:52.479Z,12.78
2022-08-07T04:54:05.596Z,12.79
2022-08-07T04:54:52.325Z,12.79
2022-08-07T04:58:10.969Z,12.78
2022-08-07T04:58:12.971Z,12.78
2022-08-07T04:58:13.689Z,12.78
2022-08-07T04:59:17.004Z,12.78
2022-08-07T05:00:12.634Z,12.78
2022-08-07T05:00:52.329Z,12.79
2022-08-07T05:01:51.355Z,12.79
2022-08-07T05:02:51.463Z,12.79
2022-08-07T05:04:07.717Z,12.80
2022-08-07T05:04:52.222Z,12.81
2022-08-07T05:05:53.463Z,12.80
2022-08-07T05:06:53.341Z,12.80
2022-08-07T05:07:51.538Z,12.80
2022-08-07T05:09:01.494Z,12.80
2022-08-07T05:09:52.207Z,12.80
2022-08-07T05:10:51.199Z,12.80
2022-08-07T05:11:58.510Z,12.81
2022-08-07T05:12:53.717Z,12.81
2022-08-07T05:14:54.446Z,12.82
2022-08-07T05:15:04.541Z,12.82
2022-08-07T05:15:52.100Z,12.83
2022-08-07T05:16:52.926Z,12.85
2022-08-07T05:17:54.649Z,12.86
2022-08-07T05:18:51.082Z,12.88
2022-08-07T05:19:51.091Z,12.90
2022-08-07T05:20:51.216Z,12.92
2022-08-07T05:22:00.063Z,12.94
2022-08-07T05:22:52.050Z,12.96
2022-08-07T05:23:51.050Z,12.98
2022-08-07T05:24:51.011Z,13.01
2022-08-07T05:26:10.490Z,13.03
2022-08-07T05:26:51.990Z,13.05
2022-08-07T05:28:16.014Z,13.07
2022-08-07T05:28:52.014Z,13.09
2022-08-07T05:29:52.162Z,13.10
2022-08-07T05:30:52.274Z,13.12
2022-08-07T05:31:52.994Z,13.14
2022-08-07T05:32:50.933Z,13.16
2022-08-07T05:34:01.171Z,13.18
2022-08-07T05:34:51.901Z,13.21
2022-08-07T05:35:50.923Z,13.24
2022-08-07T05:36:52.709Z,13.28
2022-08-07T05:38:09.661Z,13.31
2022-08-07T05:38:59.635Z,13.33
2022-08-07T05:40:16.671Z,13.36
2022-08-07T05:40:51.983Z,13.39
2022-08-07T05:42:01.433Z,13.42
2022-08-07T05:42:56.209Z,13.46
2022-08-07T05:44:12.212Z,13.49
2022-08-07T05:45:04.249Z,13.53
2022-08-07T05:45:51.781Z,13.58
2022-08-07T05:46:51.214Z,13.62
2022-08-07T05:48:01.526Z,13.66
2022-08-07T05:48:58.303Z,13.71
2022-08-07T05:49:51.754Z,13.76
2022-08-07T05:50:50.798Z,13.80
2022-08-07T05:51:50.740Z,13.85
2022-08-07T05:52:50.778Z,13.90
2022-08-07T05:54:14.069Z,13.94
2022-08-07T05:54:55.994Z,13.98
2022-08-07T05:56:01.998Z,14.02
2022-08-07T05:56:51.679Z,14.06
2022-08-07T05:57:50.661Z,14.11
2022-08-07T05:58:52.795Z,14.15
2022-08-07T05:59:56.211Z,14.20
2022-08-07T06:00:51.658Z,14.24
2022-08-07T06:01:50.767Z,14.28
2022-08-07T06:02:50.608Z,14.33
2022-08-07T06:03:54.015Z,14.38
2022-08-07T06:04:52.413Z,14.44
2022-08-07T06:05:56.662Z,14.50
2022-08-07T06:06:56.487Z,14.55
2022-08-07T06:08:13.870Z,14.61
2022-08-07T06:08:51.709Z,14.67
2022-08-07T06:10:05.147Z,14.72
2022-08-07T06:10:54.977Z,14.78
2022-08-07T06:11:50.709Z,14.84
2022-08-07T06:12:50.501Z,14.91
2022-08-07T06:14:12.340Z,14.97
2022-08-07T06:14:51.509Z,15.03
2022-08-07T06:15:50.459Z,15.09
2022-08-07T06:16:56.393Z,15.16
2022-08-07T06:17:55.117Z,15.21
2022-08-07T06:18:51.451Z,15.27
2022-08-07T06:20:03.466Z,15.32
2022-08-07T06:22:12.512Z,15.38
2022-08-07T06:22:15.779Z,15.42
2022-08-07T06:23:02.558Z,15.47
2022-08-07T06:24:37.769Z,15.52
2022-08-07T06:24:58.159Z,15.58
2022-08-07T06:25:54.363Z,15.64
2022-08-07T06:26:50.420Z,15.71
2022-08-07T06:28:01.883Z,15.78
2022-08-07T06:28:52.822Z,15.85
2022-08-07T06:29:50.351Z,15.92
2022-08-07T06:30:50.769Z,15.99
2022-08-07T06:31:50.722Z,16.05
2022-08-07T06:32:50.321Z,16.11
2022-08-07T06:33:50.445Z,16.17
2022-08-07T06:34:50.280Z,16.23
2022-08-07T06:36:12.339Z,16.28
2022-08-07T06:36:52.171Z,16.34
2022-08-07T06:37:50.217Z,16.39
2022-08-07T06:38:59.689Z,16.43
2022-08-07T06:40:17.253Z,16.47
2022-08-07T06:40:51.376Z,16.51
2022-08-07T06:42:02.440Z,16.54
2022-08-07T06:42:51.181Z,16.58
2022-08-07T06:44:01.498Z,16.62
2022-08-07T06:44:51.601Z,16.67
2022-08-07T06:45:50.309Z,16.72
2022-08-07T06:46:53.662Z,16.77
2022-08-07T06:47:58.477Z,16.82
2022-08-07T06:48:51.149Z,16.87
2022-08-07T06:49:52.099Z,16.92
2022-08-07T06:50:51.369Z,16.97
2022-08-07T06:51:50.421Z,17.02
2022-08-07T06:52:52.993Z,17.06
2022-08-07T06:55:28.351Z,17.11
2022-08-07T06:55:31.422Z,17.16
2022-08-07T06:56:00.489Z,17.20
2022-08-07T06:56:51.206Z,17.24
2022-08-07T06:57:56.370Z,17.29
2022-08-07T07:00:13.579Z,17.40
2022-08-07T07:00:14.348Z,17.34
2022-08-07T07:00:52.987Z,17.47
2022-08-07T07:01:51.081Z,17.55
2022-08-07T07:02:54.426Z,17.62
2022-08-07T07:03:55.116Z,17.69
2022-08-07T07:04:54.924Z,17.75
2022-08-07T07:06:05.646Z,17.80
2022-08-07T07:07:00.179Z,17.85
2022-08-07T07:07:59.816Z,17.90
2022-08-07T07:08:50.924Z,17.94
2022-08-07T07:09:49.950Z,17.99
2022-08-07T07:10:54.916Z,18.04
2022-08-07T07:12:07.888Z,18.08
2022-08-07T07:12:53.559Z,18.13
2022-08-07T07:13:57.865Z,18.19
2022-08-07T07:14:51.019Z,18.25
2022-08-07T07:15:51.764Z,18.32
2022-08-07T07:16:53.398Z,18.40
2022-08-07T07:17:50.547Z,18.48
2022-08-07T07:18:49.800Z,18.55
2022-08-07T07:19:57.156Z,18.62
2022-08-07T07:20:50.783Z,18.69
2022-08-07T07:22:11.900Z,18.74
2022-08-07T07:24:06.193Z,18.85
2022-08-07T07:24:09.092Z,18.80
2022-08-07T07:25:02.392Z,18.92
2022-08-07T07:26:33.869Z,18.98
2022-08-07T07:26:52.339Z,19.04
2022-08-07T07:27:55.728Z,19.10
2022-08-07T07:29:40.388Z,19.15
2022-08-07T07:30:07.565Z,19.21
2022-08-07T07:30:53.589Z,19.26
2022-08-07T07:31:49.658Z,19.31
2022-08-07T07:32:49.634Z,19.36
2022-08-07T07:33:56.485Z,19.41
2022-08-07T07:34:50.816Z,19.47
2022-08-07T07:36:04.430Z,19.53
2022-08-07T07:36:54.255Z,19.60
2022-08-07T07:37:59.169Z,19.67
2022-08-07T07:38:50.813Z,19.75
2022-08-07T07:39:54.355Z,19.82
2022-08-07T07:40:50.579Z,19.88
2022-08-07T07:42:02.135Z,19.93
2022-08-07T07:42:54.179Z,20.00
2022-08-07T07:44:17.304Z,20.07
2022-08-07T07:44:50.695Z,20.13
2022-08-07T07:46:37.545Z,20.18
2022-08-07T07:46:56.059Z,20.21
2022-08-07T07:47:52.501Z,20.23
2022-08-07T07:48:49.497Z,20.25
2022-08-07T07:50:35.168Z,20.27
2022-08-07T07:50:50.446Z,20.29
2022-08-07T07:51:57.987Z,20.30
2022-08-07T07:52:50.471Z,20.33
2022-08-07T07:53:52.439Z,20.36
2022-08-07T07:54:51.487Z,20.39
2022-08-07T07:55:54.946Z,20.42
2022-08-07T07:56:50.391Z,20.45
2022-08-07T07:57:53.300Z,20.47
2022-08-07T07:58:49.355Z,20.49
2022-08-07T07:59:52.530Z,20.53
2022-08-07T08:00:53.791Z,20.59
2022-08-07T08:02:04.926Z,20.61
2022-08-07T08:03:05.898Z,20.59
2022-08-07T08:04:10.737Z,20.58
2022-08-07T08:04:50.660Z,20.61
2022-08-07T08:05:54.833Z,20.67
2022-08-07T08:06:52.064Z,20.74
2022-08-07T08:07:59.882Z,20.81
2022-08-07T08:08:50.255Z,20.88
2022-08-07T08:09:51.659Z,20.96
2022-08-07T08:10:50.266Z,21.02
2022-08-07T08:12:02.558Z,21.07
2022-08-07T08:12:59.288Z,21.13
2022-08-07T08:13:55.504Z,21.18
2022-08-07T08:14:50.196Z,21.25
2022-08-07T08:15:58.990Z,21.31
2022-08-07T08:16:50.818Z,21.39
2022-08-07T08:17:57.606Z,21.48
2022-08-07T08:18:50.434Z,21.55
2022-08-07T08:20:19.461Z,21.62
2022-08-07T08:20:50.136Z,21.72
2022-08-07T08:22:03.190Z,21.85
2022-08-07T08:22:55.718Z,21.97
2022-08-07T08:23:50.118Z,22.06
2022-08-07T08:24:57.028Z,22.12
2022-08-07T08:25:50.095Z,22.16
2022-08-07T08:26:50.607Z,22.21
2022-08-07T08:27:56.770Z,22.27
2022-08-07T08:28:50.198Z,22.33
2022-08-07T08:29:55.895Z,22.40
2022-08-07T08:30:51.376Z,22.43
2022-08-07T08:31:58.742Z,22.41
2022-08-07T08:32:50.248Z,22.37
2022-08-07T08:33:55.427Z,22.33
2022-08-07T08:34:49.998Z,22.33
2022-08-07T08:35:50.793Z,22.36
2022-08-07T08:36:48.948Z,22.40
2022-08-07T08:37:59.210Z,22.44
2022-08-07T08:38:50.090Z,22.49
2022-08-07T08:39:55.172Z,22.57
2022-08-07T08:40:49.909Z,22.65
2022-08-07T08:41:59.209Z,22.68
2022-08-07T08:42:51.596Z,22.65
2022-08-07T08:43:55.829Z,22.58
2022-08-07T08:44:50.021Z,22.54
2022-08-07T08:46:00.923Z,22.53
2022-08-07T08:46:49.885Z,22.56
2022-08-07T08:47:52.519Z,22.58
2022-08-07T08:48:50.921Z,22.61
2022-08-07T08:50:04.709Z,22.64
2022-08-07T08:50:51.659Z,22.66
2022-08-07T08:52:00.737Z,22.71
2022-08-07T08:52:53.806Z,22.78
2022-08-07T08:53:48.882Z,22.84
2022-08-07T08:54:48.761Z,22.87
2022-08-07T08:55:53.787Z,22.91
2022-08-07T08:56:49.914Z,22.94
2022-08-07T08:57:48.757Z,22.96
2022-08-07T08:58:50.633Z,23.01
2022-08-07T08:59:50.292Z,23.08
2022-08-07T09:00:51.813Z,23.17
2022-08-07T09:01:49.147Z,23.24
2022-08-07T09:02:49.590Z,23.29
2022-08-07T09:03:52.636Z,23.30
2022-08-07T09:04:48.651Z,23.31
2022-08-07T09:05:48.676Z,23.30
2022-08-07T09:06:48.630Z,23.32
2022-08-07T09:07:57.430Z,23.34
2022-08-07T09:08:49.604Z,23.40
2022-08-07T09:09:48.603Z,23.48
2022-08-07T09:10:49.593Z,23.58
2022-08-07T09:11:53.228Z,23.69
2022-08-07T09:12:53.062Z,23.79
2022-08-07T09:13:48.546Z,23.87
2022-08-07T09:14:50.640Z,23.93
2022-08-07T09:16:23.930Z,23.97
2022-08-07T09:16:49.518Z,23.99
2022-08-07T09:17:59.462Z,24.00
2022-08-07T09:18:53.437Z,24.01
2022-08-07T09:19:52.764Z,24.01
2022-08-07T09:20:57.832Z,24.02
2022-08-07T09:22:10.367Z,24.03
2022-08-07T09:24:33.848Z,24.03
2022-08-07T09:24:54.109Z,24.03
2022-08-07T09:24:58.619Z,24.04
2022-08-07T09:25:54.253Z,24.06
2022-08-07T09:26:51.060Z,24.09
2022-08-07T09:28:00.459Z,24.13
2022-08-07T09:30:04.644Z,24.19
2022-08-07T09:30:05.532Z,24.24
2022-08-07T09:30:54.241Z,24.26
2022-08-07T09:31:49.579Z,24.25
2022-08-07T09:32:48.361Z,24.22
2022-08-07T09:33:56.781Z,24.19
2022-08-07T09:34:54.018Z,24.17
2022-08-07T09:36:03.158Z,24.17
2022-08-07T09:36:49.639Z,24.18
2022-08-07T09:37:53.862Z,24.18
2022-08-07T09:38:50.164Z,24.18
2022-08-07T09:39:54.901Z,24.18
2022-08-07T09:40:50.209Z,24.17
2022-08-07T09:42:02.929Z,24.15
2022-08-07T09:42:50.486Z,24.14
2022-08-07T09:44:05.853Z,24.13
2022-08-07T09:47:25.693Z,24.17
2022-08-07T09:47:25.813Z,24.14
2022-08-07T09:47:50.443Z,24.19
2022-08-07T09:47:59.435Z,24.20
2022-08-07T09:50:02.654Z,24.19
2022-08-07T09:50:02.723Z,24.20
2022-08-07T09:50:49.158Z,24.18
2022-08-07T09:52:10.080Z,24.18
2022-08-07T09:52:51.931Z,24.17
2022-08-07T09:53:56.161Z,24.16
2022-08-07T09:54:49.118Z,24.14
2022-08-07T09:56:04.587Z,24.12
2022-08-07T09:56:49.143Z,24.12
2022-08-07T09:57:48.089Z,24.13
2022-08-07T09:58:48.765Z,24.15
2022-08-07T10:00:01.257Z,24.17
2022-08-07T10:00:49.057Z,24.19
2022-08-07T10:01:51.501Z,24.22
2022-08-07T10:02:55.488Z,24.25
2022-08-07T10:04:07.083Z,24.29
2022-08-07T10:04:53.399Z,24.32
2022-08-07T10:05:59.822Z,24.36
2022-08-07T10:06:55.539Z,24.40
2022-08-07T10:07:53.524Z,24.44
2022-08-07T10:08:49.581Z,24.49
2022-08-07T10:10:00.921Z,24.54
2022-08-07T10:11:17.199Z,24.57
2022-08-07T10:12:02.036Z,24.60
2022-08-07T10:12:52.999Z,24.65
2022-08-07T10:14:00.716Z,24.71
2022-08-07T10:14:55.170Z,24.77
2022-08-07T10:15:48.912Z,24.83
2022-08-07T10:16:48.157Z,24.88
2022-08-07T10:18:02.656Z,24.94
2022-08-07T10:18:48.882Z,25.00
2022-08-07T10:19:47.918Z,24.99
2022-08-07T10:20:50.228Z,24.88
2022-08-07T10:22:12.261Z,24.74
2022-08-07T10:22:51.052Z,24.62
2022-08-07T10:24:05.649Z,24.51
2022-08-07T10:24:48.811Z,24.39
2022-08-07T10:25:47.812Z,24.29
2022-08-07T10:26:51.656Z,24.22
2022-08-07T10:27:47.963Z,24.17
2022-08-07T10:28:49.578Z,24.15
2022-08-07T10:29:51.428Z,24.16
2022-08-07T10:30:47.742Z,24.18
2022-08-07T10:31:49.565Z,24.18
2022-08-07T10:32:52.881Z,24.17
2022-08-07T10:34:06.855Z,24.16
2022-08-07T10:34:48.687Z,24.14
2022-08-07T10:35:55.461Z,24.10
2022-08-07T10:36:48.707Z,24.05
2022-08-07T10:38:00.009Z,24.00
2022-08-07T10:38:49.963Z,23.97
2022-08-07T10:40:02.908Z,23.97
2022-08-07T10:40:48.633Z,24.00
2022-08-07T10:41:54.666Z,24.04
2022-08-07T10:42:50.085Z,24.08
2022-08-07T10:43:47.606Z,24.12
2022-08-07T10:44:47.646Z,24.16
2022-08-07T10:45:57.984Z,24.18
2022-08-07T10:46:48.575Z,24.19
2022-08-07T10:47:51.459Z,24.20
2022-08-07T10:48:48.565Z,24.23
2022-08-07T10:49:50.792Z,24.26
2022-08-07T10:50:50.170Z,24.30
2022-08-07T10:52:01.561Z,24.36
2022-08-07T10:52:48.653Z,24.42
2022-08-07T10:53:47.533Z,24.48
2022-08-07T10:55:00.976Z,24.52
2022-08-07T10:55:48.485Z,24.54
2022-08-07T10:56:47.506Z,24.51
2022-08-07T10:57:56.156Z,24.48
2022-08-07T10:58:48.435Z,24.44
2022-08-07T10:59:48.443Z,24.42
2022-08-07T11:00:50.570Z,24.43
2022-08-07T11:01:52.159Z,24.46
2022-08-07T11:02:49.246Z,24.48
2022-08-07T11:03:55.290Z,24.50
2022-08-07T11:04:48.369Z,24.54
2022-08-07T11:05:50.656Z,24.57
2022-08-07T11:06:47.434Z,24.58
2022-08-07T11:08:00.835Z,24.58
2022-08-07T11:08:48.551Z,24.60
2022-08-07T11:10:09.341Z,24.62
2022-08-07T11:10:52.273Z,24.65
2022-08-07T11:11:51.715Z,24.67
2022-08-07T11:12:49.237Z,24.69
2022-08-07T11:14:44.523Z,24.72
2022-08-07T11:15:00.142Z,24.76
2022-08-07T11:15:54.655Z,24.80
2022-08-07T11:16:52.779Z,24.83
2022-08-07T11:17:48.571Z,24.86
2022-08-07T11:18:50.946Z,24.89
2022-08-07T11:19:47.380Z,24.92
2022-08-07T11:20:47.229Z,24.95
2022-08-07T11:21:47.208Z,24.98
2022-08-07T11:22:47.204Z,24.99
2022-08-07T11:23:48.442Z,24.99
2022-08-07T11:24:47.273Z,24.98
2022-08-07T11:25:49.763Z,24.98
2022-08-07T11:26:50.114Z,24.97
2022-08-07T11:28:02.925Z,24.95
2022-08-07T11:28:55.439Z,24.93
2022-08-07T11:30:10.131Z,24.88
2022-08-07T11:30:48.264Z,24.81
2022-08-07T11:31:47.124Z,24.73
2022-08-07T11:32:47.094Z,24.67
2022-08-07T11:33:59.297Z,24.61
2022-08-07T11:34:48.062Z,24.56
2022-08-07T11:35:59.686Z,24.53
2022-08-07T11:36:48.041Z,24.51
2022-08-07T11:37:57.909Z,24.52
2022-08-07T11:38:50.544Z,24.52
2022-08-07T11:40:00.234Z,24.54
2022-08-07T11:40:49.626Z,24.56
2022-08-07T11:42:02.487Z,24.59
2022-08-07T11:42:48.121Z,24.62
2022-08-07T11:44:10.720Z,24.65
2022-08-07T11:44:52.730Z,24.67
2022-08-07T11:45:49.845Z,24.68
2022-08-07T11:46:48.703Z,24.68
2022-08-07T11:47:55.808Z,24.69
2022-08-07T11:49:04.382Z,24.70
2022-08-07T11:50:11.524Z,24.72
2022-08-07T11:50:57.782Z,24.73
2022-08-07T11:51:47.954Z,24.76
2022-08-07T11:52:46.884Z,24.78
2022-08-07T11:54:01.651Z,24.81
2022-08-07T11:54:55.111Z,24.83
2022-08-07T11:56:26.049Z,24.83
2022-08-07T11:56:53.072Z,24.79
2022-08-07T11:58:00.111Z,24.74
2022-08-07T11:58:49.890Z,24.68
2022-08-07T12:00:10.407Z,24.62
2022-08-07T12:00:48.882Z,24.58
2022-08-07T12:02:00.119Z,24.55
2022-08-07T12:02:52.683Z,24.53
2022-08-07T12:03:47.846Z,24.52
2022-08-07T12:04:46.981Z,24.51
2022-08-07T12:05:49.245Z,24.50
2022-08-07T12:06:51.513Z,24.49
2022-08-07T12:07:53.439Z,24.48
2022-08-07T12:08:47.762Z,24.48
2022-08-07T12:09:46.794Z,24.47
2022-08-07T12:10:46.838Z,24.44
2022-08-07T12:12:09.562Z,24.42
2022-08-07T12:12:47.742Z,24.40
2022-08-07T12:13:47.721Z,24.39
2022-08-07T12:14:55.390Z,24.40
2022-08-07T12:16:06.841Z,24.42
2022-08-07T12:16:47.625Z,24.46
2022-08-07T12:17:58.630Z,24.50
2022-08-07T12:18:47.596Z,24.53
2022-08-07T12:19:56.489Z,24.55
2022-08-07T12:20:49.250Z,24.56
2022-08-07T12:21:55.614Z,24.58
2022-08-07T12:22:58.475Z,24.61
2022-08-07T12:24:07.465Z,24.63
2022-08-07T12:24:52.408Z,24.66
2022-08-07T12:26:05.584Z,24.70
2022-08-07T12:26:49.426Z,24.73
2022-08-07T12:28:09.600Z,24.76
2022-08-07T12:28:49.743Z,24.78
2022-08-07T12:29:47.466Z,24.81
2022-08-07T12:30:51.405Z,24.82
2022-08-07T12:32:01.839Z,24.82
2022-08-07T12:32:48.314Z,24.81
2022-08-07T12:33:56.596Z,24.79
2022-08-07T12:34:49.406Z,24.77
2022-08-07T12:35:48.073Z,24.75
2022-08-07T12:36:49.992Z,24.73
2022-08-07T12:38:10.201Z,24.72
2022-08-07T12:38:57.177Z,24.72
2022-08-07T12:39:50.776Z,24.75
2022-08-07T12:40:48.595Z,24.78
2022-08-07T12:41:51.659Z,24.80
2022-08-07T12:42:55.188Z,24.81
2022-08-07T12:44:02.511Z,24.83
2022-08-07T12:44:48.079Z,24.83
2022-08-07T12:45:52.351Z,24.83
2022-08-07T12:46:47.369Z,24.83
2022-08-07T12:47:46.328Z,24.84
2022-08-07T12:48:52.408Z,24.85
2022-08-07T12:49:51.648Z,24.86
2022-08-07T12:50:48.777Z,24.86
2022-08-07T12:51:51.428Z,24.86
2022-08-07T12:52:47.214Z,24.85